createdAt,value
2018-02-24T00:00:24.461Z,0
2018-02-24T00:01:34.181Z,0
2018-02-24T00:02:44.172Z,0
2018-02-24T00:03:54.169Z,0
2018-02-24T00:05:03.899Z,0
2018-02-24T00:06:13.887Z,0
2018-02-24T00:07:23.616Z,0
2018-02-24T00:08:33.610Z,0
2018-02-24T00:09:43.338Z,0
2018-02-24T00:10:53.333Z,0
2018-02-24T00:12:03.428Z,0
2018-02-24T00:13:12.846Z,0
2018-02-24T00:14:22.832Z,0
2018-02-24T00:15:32.822Z,0
2018-02-24T00:16:42.810Z,0
2018-02-24T00:17:52.535Z,0
2018-02-24T00:19:02.258Z,0
2018-02-24T00:20:11.999Z,0
2018-02-24T00:21:21.722Z,0
2018-02-24T00:22:31.759Z,0
2018-02-24T00:23:41.481Z,0
2018-02-24T00:24:50.947Z,0
2018-02-24T00:26:00.942Z,0
2018-02-24T00:27:10.933Z,0
2018-02-24T00:28:20.927Z,0
2018-02-24T00:29:30.921Z,0
2018-02-24T00:30:40.946Z,0
2018-02-24T00:31:50.402Z,0
2018-02-24T00:33:00.396Z,0
2018-02-24T00:34:10.387Z,0
2018-02-24T00:35:20.379Z,0
2018-02-24T00:36:30.101Z,0
2018-02-24T00:37:39.825Z,0
2018-02-24T00:38:49.814Z,0
2018-02-24T00:39:59.805Z,0
2018-02-24T00:41:09.788Z,0
2018-02-24T00:42:19.880Z,0
2018-02-24T00:43:29.598Z,0
2018-02-24T00:44:39.049Z,0
2018-02-24T00:45:49.037Z,0
2018-02-24T00:46:59.022Z,0
2018-02-24T00:48:09.009Z,0
2018-02-24T00:49:18.732Z,0
2018-02-24T00:50:28.721Z,0
2018-02-24T00:51:38.446Z,0
2018-02-24T00:52:48.168Z,0
2018-02-24T00:53:58.155Z,0
2018-02-24T00:55:07.890Z,0
2018-02-24T00:56:17.877Z,0
2018-02-24T00:57:27.872Z,0
2018-02-24T00:58:37.328Z,0
2018-02-24T00:59:47.321Z,0
2018-02-24T01:00:57.096Z,0
2018-02-24T01:02:07.088Z,0
2018-02-24T01:03:17.086Z,0
2018-02-24T01:04:27.083Z,0
2018-02-24T01:05:37.247Z,0
2018-02-24T01:06:47.244Z,0
2018-02-24T01:07:57.235Z,0
2018-02-24T01:09:07.234Z,0
2018-02-24T01:10:17.230Z,0
2018-02-24T01:11:27.229Z,0
2018-02-24T01:12:37.324Z,0
2018-02-24T01:13:47.051Z,0
2018-02-24T01:14:56.531Z,0
2018-02-24T01:16:06.261Z,0
2018-02-24T01:17:16.260Z,0
2018-02-24T01:18:26.344Z,0
2018-02-24T01:19:36.070Z,0
2018-02-24T01:20:46.054Z,0
2018-02-24T01:21:56.047Z,0
2018-02-24T01:23:06.035Z,0
2018-02-24T01:24:16.030Z,0
2018-02-24T01:25:25.486Z,0
2018-02-24T01:26:35.475Z,0
2018-02-24T01:27:45.204Z,0
2018-02-24T01:28:55.198Z,0
2018-02-24T01:30:05.194Z,0
2018-02-24T01:31:14.926Z,0
2018-02-24T01:32:24.918Z,0
2018-02-24T01:33:34.921Z,0
2018-02-24T01:34:44.910Z,0
2018-02-24T01:35:55.007Z,0
2018-02-24T01:37:04.731Z,0
2018-02-24T01:38:14.459Z,0
2018-02-24T01:39:24.184Z,0
2018-02-24T01:40:34.173Z,0
2018-02-24T01:41:44.168Z,0
2018-02-24T01:42:54.163Z,0
2018-02-24T01:44:04.150Z,0
2018-02-24T01:45:14.152Z,0
2018-02-24T01:46:24.151Z,0
2018-02-24T01:47:34.145Z,0
2018-02-24T01:48:43.873Z,0
2018-02-24T01:49:53.870Z,0
2018-02-24T01:51:03.921Z,0
2018-02-24T01:52:13.376Z,0
2018-02-24T01:53:23.378Z,0
2018-02-24T01:54:33.105Z,0
2018-02-24T01:55:43.102Z,0
2018-02-24T01:56:52.834Z,0
2018-02-24T01:58:02.832Z,0
2018-02-24T01:59:12.821Z,0
2018-02-24T02:00:22.813Z,0
2018-02-24T02:01:32.830Z,0
2018-02-24T02:02:42.823Z,0
2018-02-24T02:03:52.815Z,0
2018-02-24T02:05:02.561Z,0
2018-02-24T02:06:12.020Z,0
2018-02-24T02:07:22.021Z,0
2018-02-24T02:08:32.009Z,0
2018-02-24T02:09:42.009Z,0
2018-02-24T02:10:51.467Z,0
2018-02-24T02:12:01.190Z,0
2018-02-24T02:13:10.928Z,0
2018-02-24T02:14:20.926Z,0
2018-02-24T02:15:30.920Z,0
2018-02-24T02:16:40.691Z,0
2018-02-24T02:17:50.148Z,0
2018-02-24T02:19:00.133Z,0
2018-02-24T02:20:09.864Z,0
2018-02-24T02:21:19.598Z,0
2018-02-24T02:22:29.592Z,0
2018-02-24T02:23:39.586Z,0
2018-02-24T02:24:49.581Z,0
2018-02-24T02:25:59.577Z,0
2018-02-24T02:27:09.574Z,0
2018-02-24T02:28:19.567Z,0
2018-02-24T02:29:29.020Z,0
2018-02-24T02:30:39.025Z,0
2018-02-24T02:31:49.029Z,0
2018-02-24T02:32:59.026Z,0
2018-02-24T02:34:09.139Z,0
2018-02-24T02:35:18.870Z,0
2018-02-24T02:36:28.888Z,0
2018-02-24T02:37:38.633Z,0
2018-02-24T02:38:48.644Z,0
2018-02-24T02:39:58.653Z,0
2018-02-24T02:41:08.388Z,0
2018-02-24T02:42:17.850Z,0
2018-02-24T02:43:27.849Z,0
2018-02-24T02:44:37.861Z,0
2018-02-24T02:45:47.865Z,0
2018-02-24T02:46:57.948Z,0
2018-02-24T02:48:07.685Z,0
2018-02-24T02:49:17.417Z,0
2018-02-24T02:50:27.415Z,0
2018-02-24T02:51:37.412Z,0
2018-02-24T02:52:47.144Z,0
2018-02-24T02:53:57.151Z,0
2018-02-24T02:55:07.144Z,0
2018-02-24T02:56:17.137Z,0
2018-02-24T02:57:27.144Z,0
2018-02-24T02:58:36.871Z,0
2018-02-24T02:59:46.871Z,0
2018-02-24T03:00:56.891Z,0
2018-02-24T03:02:06.898Z,0
2018-02-24T03:03:16.896Z,0
2018-02-24T03:04:26.631Z,0
2018-02-24T03:05:36.353Z,0
2018-02-24T03:06:46.088Z,0
2018-02-24T03:07:56.081Z,0
2018-02-24T03:09:05.833Z,0
2018-02-24T03:10:15.834Z,0
2018-02-24T03:11:25.822Z,0
2018-02-24T03:12:35.546Z,0
2018-02-24T03:13:45.539Z,0
2018-02-24T03:14:55.523Z,0
2018-02-24T03:16:04.978Z,0
2018-02-24T03:17:15.085Z,0
2018-02-24T03:18:24.817Z,0
2018-02-24T03:19:34.813Z,0
2018-02-24T03:20:44.275Z,0
2018-02-24T03:21:54.267Z,0
2018-02-24T03:23:03.990Z,0
2018-02-24T03:24:13.984Z,0
2018-02-24T03:25:23.965Z,0
2018-02-24T03:26:33.954Z,0
2018-02-24T03:27:43.954Z,0
2018-02-24T03:28:53.943Z,0
2018-02-24T03:30:03.938Z,0
2018-02-24T03:31:13.956Z,0
2018-02-24T03:32:23.680Z,0
2018-02-24T03:33:33.671Z,0
2018-02-24T03:34:43.667Z,0
2018-02-24T03:35:53.657Z,0
2018-02-24T03:37:03.381Z,0
2018-02-24T03:38:13.386Z,0
2018-02-24T03:39:23.388Z,0
2018-02-24T03:40:33.374Z,0
2018-02-24T03:41:43.361Z,0
2018-02-24T03:42:53.350Z,0
2018-02-24T03:44:03.337Z,0
2018-02-24T03:45:13.330Z,0
2018-02-24T03:46:23.328Z,0
2018-02-24T03:47:33.317Z,0
2018-02-24T03:48:43.041Z,0
2018-02-24T03:49:53.032Z,0
2018-02-24T03:51:03.024Z,0
2018-02-24T03:52:12.750Z,0
2018-02-24T03:53:22.741Z,0
2018-02-24T03:54:32.742Z,0
2018-02-24T03:55:42.746Z,0
2018-02-24T03:56:52.729Z,0
2018-02-24T03:58:02.726Z,0
2018-02-24T03:59:12.449Z,0
2018-02-24T04:00:22.442Z,0
2018-02-24T04:04:12.688Z,0
2018-02-24T04:05:22.685Z,0
2018-02-24T04:06:32.684Z,0
2018-02-24T04:07:42.673Z,0
2018-02-24T04:08:52.661Z,0
2018-02-24T04:10:02.128Z,0
2018-02-24T04:11:11.857Z,0
2018-02-24T04:12:21.851Z,0
2018-02-24T04:13:31.849Z,0
2018-02-24T04:14:41.842Z,0
2018-02-24T04:15:51.567Z,0
2018-02-24T04:17:01.294Z,0
2018-02-24T04:18:11.012Z,0
2018-02-24T04:19:20.736Z,0
2018-02-24T04:20:30.717Z,0
2018-02-24T04:21:40.905Z,0
2018-02-24T04:22:50.897Z,0
2018-02-24T04:24:00.896Z,0
2018-02-24T04:25:10.886Z,0
2018-02-24T04:26:20.613Z,0
2018-02-24T04:27:30.617Z,0
2018-02-24T04:28:40.611Z,0
2018-02-24T04:29:50.604Z,0
2018-02-24T04:31:00.601Z,0
2018-02-24T04:32:10.592Z,0
2018-02-24T04:33:20.052Z,0
2018-02-24T04:34:30.042Z,0
2018-02-24T04:35:39.763Z,0
2018-02-24T04:36:49.490Z,0
2018-02-24T04:37:59.478Z,0
2018-02-24T04:39:09.473Z,0
2018-02-24T04:40:19.466Z,0
2018-02-24T04:41:29.456Z,0
2018-02-24T04:42:38.915Z,0
2018-02-24T04:43:48.632Z,0
2018-02-24T04:44:58.722Z,0
2018-02-24T04:46:08.718Z,0
2018-02-24T04:47:18.444Z,0
2018-02-24T04:48:28.170Z,0
2018-02-24T04:49:38.163Z,0
2018-02-24T04:50:47.884Z,0
2018-02-24T04:51:57.881Z,0
2018-02-24T04:53:07.871Z,0
2018-02-24T04:54:17.858Z,0
2018-02-24T04:55:27.846Z,0
2018-02-24T04:56:37.933Z,0
2018-02-24T04:57:47.919Z,0
2018-02-24T04:58:57.638Z,0
2018-02-24T05:00:07.106Z,0
2018-02-24T05:01:16.835Z,0
2018-02-24T05:02:26.824Z,0
2018-02-24T05:03:36.813Z,0
2018-02-24T05:04:46.801Z,0
2018-02-24T05:05:56.788Z,0
2018-02-24T05:07:06.515Z,0
2018-02-24T05:08:16.574Z,0
2018-02-24T05:09:26.564Z,0
2018-02-24T05:10:36.559Z,0
2018-02-24T05:11:46.545Z,0
2018-02-24T05:12:56.536Z,0
2018-02-24T05:14:06.522Z,0
2018-02-24T05:15:16.515Z,0
2018-02-24T05:16:26.507Z,0
2018-02-24T05:17:36.500Z,0
2018-02-24T05:18:45.958Z,0
2018-02-24T05:19:55.948Z,0
2018-02-24T05:21:05.672Z,0
2018-02-24T05:22:15.667Z,0
2018-02-24T05:23:25.653Z,0
2018-02-24T05:24:35.648Z,0
2018-02-24T05:25:45.644Z,0
2018-02-24T05:26:55.640Z,0
2018-02-24T05:28:05.650Z,0
2018-02-24T05:29:15.394Z,0
2018-02-24T05:30:25.391Z,0
2018-02-24T05:31:35.118Z,0
2018-02-24T05:32:44.844Z,0
2018-02-24T05:33:54.834Z,0
2018-02-24T05:35:04.823Z,0
2018-02-24T05:36:14.824Z,0
2018-02-24T05:37:24.809Z,0
2018-02-24T05:38:34.528Z,0
2018-02-24T05:39:44.512Z,0
2018-02-24T05:40:54.496Z,0
2018-02-24T05:42:04.485Z,0
2018-02-24T05:43:14.475Z,0
2018-02-24T05:44:24.463Z,0
2018-02-24T05:45:34.453Z,0
2018-02-24T05:46:44.190Z,0
2018-02-24T05:47:53.922Z,0
2018-02-24T05:49:03.912Z,0
2018-02-24T05:50:13.910Z,0
2018-02-24T05:51:23.636Z,0
2018-02-24T05:52:33.632Z,0
2018-02-24T05:53:43.624Z,0
2018-02-24T05:54:53.343Z,0
2018-02-24T05:56:03.062Z,0
2018-02-24T05:57:13.048Z,0
2018-02-24T05:58:22.771Z,0
2018-02-24T05:59:32.760Z,0
2018-02-24T06:00:42.745Z,0
2018-02-24T06:01:52.734Z,0
2018-02-24T06:03:02.456Z,0
2018-02-24T06:04:12.447Z,0
2018-02-24T06:05:22.446Z,0
2018-02-24T06:06:32.447Z,0
2018-02-24T06:07:42.598Z,0
2018-02-24T06:08:52.588Z,0
2018-02-24T06:10:02.320Z,0
2018-02-24T06:11:12.051Z,0
2018-02-24T06:12:22.040Z,0
2018-02-24T06:13:32.080Z,0
2018-02-24T06:14:42.065Z,0
2018-02-24T06:15:52.130Z,0
2018-02-24T06:17:02.169Z,0
2018-02-24T06:18:12.161Z,0
2018-02-24T06:19:22.155Z,0
2018-02-24T06:20:32.143Z,0
2018-02-24T06:21:42.132Z,0
2018-02-24T06:22:52.114Z,0
2018-02-24T06:24:02.113Z,0
2018-02-24T06:25:12.106Z,5
2018-02-24T06:26:21.845Z,5
2018-02-24T06:27:31.563Z,5
2018-02-24T06:28:41.591Z,5
2018-02-24T06:29:51.580Z,5
2018-02-24T06:31:01.303Z,5
2018-02-24T06:32:11.022Z,5
2018-02-24T06:33:20.743Z,10
2018-02-24T06:34:30.460Z,10
2018-02-24T06:35:40.460Z,10
2018-02-24T06:36:50.187Z,10
2018-02-24T06:38:00.175Z,10
2018-02-24T06:39:09.634Z,10
2018-02-24T06:40:19.624Z,15
2018-02-24T06:41:29.617Z,15
2018-02-24T06:42:39.650Z,15
2018-02-24T06:43:49.658Z,15
2018-02-24T06:44:59.374Z,15
2018-02-24T06:46:09.372Z,15
2018-02-24T06:47:19.095Z,20
2018-02-24T06:48:29.083Z,20
2018-02-24T06:49:39.071Z,20
2018-02-24T06:50:49.054Z,20
2018-02-24T06:51:59.041Z,25
2018-02-24T06:53:09.049Z,25
2018-02-24T06:54:19.051Z,25
2018-02-24T06:55:28.783Z,25
2018-02-24T06:56:38.502Z,30
2018-02-24T06:57:48.221Z,30
2018-02-24T06:58:58.217Z,35
2018-02-24T07:00:08.216Z,35
2018-02-24T07:01:18.205Z,40
2018-02-24T07:02:28.247Z,40
2018-02-24T07:03:37.975Z,40
2018-02-24T07:04:48.313Z,45
2018-02-24T07:05:58.300Z,45
2018-02-24T07:07:08.027Z,50
2018-02-24T07:08:18.015Z,50
2018-02-24T07:09:27.741Z,50
2018-02-24T07:10:37.197Z,55
2018-02-24T07:11:47.184Z,55
2018-02-24T07:12:57.290Z,60
2018-02-24T07:14:07.019Z,60
2018-02-24T07:15:17.006Z,60
2018-02-24T07:16:27.003Z,65
2018-02-24T07:17:37.003Z,65
2018-02-24T07:18:46.996Z,65
2018-02-24T07:19:56.982Z,65
2018-02-24T07:21:06.705Z,65
2018-02-24T07:22:16.693Z,65
2018-02-24T07:23:26.683Z,65
2018-02-24T07:24:36.403Z,70
2018-02-24T07:25:46.129Z,70
2018-02-24T07:26:56.117Z,70
2018-02-24T07:28:06.118Z,75
2018-02-24T07:29:16.104Z,75
2018-02-24T07:30:26.096Z,75
2018-02-24T07:31:35.810Z,75
2018-02-24T07:32:45.529Z,80
2018-02-24T07:33:55.518Z,80
2018-02-24T07:35:05.515Z,80
2018-02-24T07:36:15.512Z,80
2018-02-24T07:37:25.504Z,80
2018-02-24T07:38:34.965Z,85
2018-02-24T07:39:44.955Z,85
2018-02-24T07:40:54.943Z,85
2018-02-24T07:42:04.665Z,85
2018-02-24T07:43:14.656Z,85
2018-02-24T07:44:24.651Z,85
2018-02-24T07:45:34.208Z,90
2018-02-24T07:46:44.201Z,90
2018-02-24T07:47:54.180Z,90
2018-02-24T07:49:03.895Z,90
2018-02-24T07:50:13.348Z,90
2018-02-24T07:51:23.341Z,90
2018-02-24T07:52:33.063Z,90
2018-02-24T07:53:43.051Z,95
2018-02-24T07:54:52.774Z,95
2018-02-24T07:56:02.758Z,95
2018-02-24T07:57:12.742Z,95
2018-02-24T07:58:22.726Z,95
2018-02-24T07:59:32.516Z,100
2018-02-24T08:00:42.543Z,105
2018-02-24T08:01:52.278Z,105
2018-02-24T08:03:02.274Z,105
2018-02-24T08:04:12.261Z,110
2018-02-24T08:05:22.261Z,110
2018-02-24T08:06:31.989Z,115
2018-02-24T08:07:41.980Z,115
2018-02-24T08:08:51.975Z,115
2018-02-24T08:10:01.971Z,120
2018-02-24T08:11:11.966Z,120
2018-02-24T08:12:21.980Z,125
2018-02-24T08:13:31.711Z,125
2018-02-24T08:14:41.807Z,130
2018-02-24T08:15:51.795Z,130
2018-02-24T08:17:01.787Z,135
2018-02-24T08:18:11.510Z,135
2018-02-24T08:19:21.505Z,140
2018-02-24T08:20:31.229Z,140
2018-02-24T08:21:41.227Z,145
2018-02-24T08:22:50.682Z,155
2018-02-24T08:24:00.410Z,160
2018-02-24T08:25:09.867Z,165
2018-02-24T08:26:19.334Z,170
2018-02-24T08:27:29.367Z,170
2018-02-24T08:28:39.365Z,170
2018-02-24T08:29:49.359Z,170
2018-02-24T08:30:59.357Z,170
2018-02-24T08:32:09.095Z,170
2018-02-24T08:33:18.822Z,175
2018-02-24T08:34:28.552Z,180
2018-02-24T08:35:38.552Z,185
2018-02-24T08:36:48.273Z,190
2018-02-24T08:37:57.998Z,195
2018-02-24T08:39:07.985Z,195
2018-02-24T08:40:17.986Z,200
2018-02-24T08:41:27.980Z,200
2018-02-24T08:42:37.979Z,205
2018-02-24T08:43:47.706Z,200
2018-02-24T08:44:57.432Z,195
2018-02-24T08:46:07.155Z,190
2018-02-24T08:47:16.876Z,180
2018-02-24T08:48:26.866Z,180
2018-02-24T08:49:36.587Z,185
2018-02-24T08:50:46.583Z,190
2018-02-24T08:51:56.575Z,190
2018-02-24T08:53:06.568Z,195
2018-02-24T08:54:16.558Z,195
2018-02-24T08:55:26.557Z,195
2018-02-24T08:56:36.283Z,200
2018-02-24T08:57:45.739Z,205
2018-02-24T08:58:55.811Z,210
2018-02-24T09:00:05.543Z,220
2018-02-24T09:01:15.543Z,225
2018-02-24T09:02:25.538Z,230
2018-02-24T09:03:35.258Z,230
2018-02-24T09:04:44.982Z,235
2018-02-24T09:05:54.441Z,235
2018-02-24T09:07:04.433Z,235
2018-02-24T09:08:13.887Z,240
2018-02-24T09:09:23.894Z,245
2018-02-24T09:10:33.882Z,250
2018-02-24T09:11:43.607Z,250
2018-02-24T09:12:53.595Z,250
2018-02-24T09:14:03.583Z,255
2018-02-24T09:15:13.304Z,260
2018-02-24T09:16:23.024Z,265
2018-02-24T09:17:32.739Z,265
2018-02-24T09:18:42.741Z,270
2018-02-24T09:19:52.740Z,270
2018-02-24T09:21:02.460Z,270
2018-02-24T09:22:11.652Z,270
2018-02-24T09:23:21.641Z,270
2018-02-24T09:24:31.727Z,270
2018-02-24T09:25:41.184Z,270
2018-02-24T09:26:50.914Z,270
2018-02-24T09:28:00.904Z,275
2018-02-24T09:29:10.905Z,275
2018-02-24T09:30:20.678Z,275
2018-02-24T09:31:30.400Z,275
2018-02-24T09:32:39.859Z,280
2018-02-24T09:33:49.852Z,280
2018-02-24T09:34:59.859Z,285
2018-02-24T09:36:09.330Z,285
2018-02-24T09:37:19.322Z,290
2018-02-24T09:38:29.113Z,290
2018-02-24T09:39:38.837Z,295
2018-02-24T09:40:48.834Z,295
2018-02-24T09:41:58.824Z,295
2018-02-24T09:43:08.546Z,295
2018-02-24T09:44:18.544Z,300
2018-02-24T09:45:28.537Z,300
2018-02-24T09:46:38.526Z,300
2018-02-24T09:47:48.555Z,295
2018-02-24T09:48:58.296Z,295
2018-02-24T09:50:08.285Z,300
2018-02-24T09:51:18.277Z,295
2018-02-24T09:52:28.286Z,295
2018-02-24T09:53:38.282Z,290
2018-02-24T09:54:48.272Z,295
2018-02-24T09:55:58.007Z,295
2018-02-24T09:57:07.731Z,300
2018-02-24T09:58:17.456Z,305
2018-02-24T09:59:27.452Z,305
2018-02-24T10:00:37.179Z,310
2018-02-24T10:01:47.190Z,310
2018-02-24T10:02:56.916Z,315
2018-02-24T10:04:06.947Z,320
2018-02-24T10:05:16.114Z,325
2018-02-24T10:06:25.841Z,335
2018-02-24T10:07:35.844Z,335
2018-02-24T10:08:45.867Z,345
2018-02-24T10:09:55.595Z,350
2018-02-24T10:11:05.049Z,355
2018-02-24T10:12:14.776Z,365
2018-02-24T10:13:24.232Z,365
2018-02-24T10:14:34.228Z,370
2018-02-24T10:15:44.217Z,375
2018-02-24T10:16:53.943Z,375
2018-02-24T10:18:03.675Z,380
2018-02-24T10:19:13.406Z,395
2018-02-24T10:20:23.404Z,400
2018-02-24T10:21:33.401Z,420
2018-02-24T10:22:43.123Z,415
2018-02-24T10:23:52.585Z,420
2018-02-24T10:25:02.990Z,435
2018-02-24T10:26:12.996Z,435
2018-02-24T10:27:22.981Z,415
2018-02-24T10:28:32.715Z,405
2018-02-24T10:29:42.713Z,400
2018-02-24T10:30:52.447Z,390
2018-02-24T10:32:02.445Z,390
2018-02-24T10:33:12.440Z,390
2018-02-24T10:34:21.897Z,390
2018-02-24T10:35:31.887Z,390
2018-02-24T10:36:41.350Z,390
2018-02-24T10:37:51.076Z,390
2018-02-24T10:39:01.069Z,390
2018-02-24T10:40:11.156Z,395
2018-02-24T10:41:20.886Z,395
2018-02-24T10:42:30.616Z,400
2018-02-24T10:43:40.348Z,410
2018-02-24T10:44:50.341Z,410
2018-02-24T10:46:00.338Z,425
2018-02-24T10:47:10.361Z,415
2018-02-24T10:48:20.360Z,405
2018-02-24T10:49:30.096Z,400
2018-02-24T10:50:40.100Z,390
2018-02-24T10:51:50.100Z,385
2018-02-24T10:53:00.095Z,375
2018-02-24T10:54:09.557Z,360
2018-02-24T10:55:19.280Z,350
2018-02-24T10:56:29.008Z,345
2018-02-24T10:57:39.125Z,330
2018-02-24T10:58:48.858Z,320
2018-02-24T10:59:58.592Z,315
2018-02-24T11:01:08.328Z,315
2018-02-24T11:02:18.054Z,320
2018-02-24T11:03:28.048Z,320
2018-02-24T11:04:37.777Z,315
2018-02-24T11:05:47.558Z,310
2018-02-24T11:06:57.302Z,310
2018-02-24T11:08:06.763Z,305
2018-02-24T11:09:16.755Z,305
2018-02-24T11:10:26.491Z,300
2018-02-24T11:11:36.276Z,295
2018-02-24T11:12:46.272Z,290
2018-02-24T11:13:56.000Z,290
2018-02-24T11:15:05.990Z,290
2018-02-24T11:16:15.979Z,290
2018-02-24T11:17:25.713Z,290
2018-02-24T11:18:35.711Z,285
2018-02-24T11:19:45.707Z,285
2018-02-24T11:20:55.701Z,285
2018-02-24T11:22:05.693Z,285
2018-02-24T11:23:15.429Z,285
2018-02-24T11:24:25.419Z,290
2018-02-24T11:25:34.612Z,285
2018-02-24T11:26:44.709Z,285
2018-02-24T11:27:54.433Z,285
2018-02-24T11:29:04.519Z,290
2018-02-24T11:30:14.251Z,280
2018-02-24T11:31:24.093Z,285
2018-02-24T11:32:34.091Z,285
2018-02-24T11:33:43.815Z,290
2018-02-24T11:34:53.813Z,295
2018-02-24T11:36:03.841Z,295
2018-02-24T11:37:13.273Z,290
2018-02-24T11:38:23.269Z,290
2018-02-24T11:39:32.723Z,290
2018-02-24T11:40:41.920Z,290
2018-02-24T11:41:51.639Z,295
2018-02-24T11:43:01.636Z,295
2018-02-24T11:44:10.825Z,295
2018-02-24T11:45:20.814Z,295
2018-02-24T11:46:30.854Z,295
2018-02-24T11:47:40.591Z,295
2018-02-24T11:48:50.584Z,295
2018-02-24T11:50:00.582Z,300
2018-02-24T11:51:10.046Z,305
2018-02-24T11:52:19.780Z,310
2018-02-24T11:53:29.774Z,315
2018-02-24T11:54:39.767Z,320
2018-02-24T11:55:49.563Z,315
2018-02-24T11:56:59.296Z,310
2018-02-24T11:58:09.288Z,310
2018-02-24T11:59:19.287Z,305
2018-02-24T12:00:29.015Z,295
2018-02-24T12:01:38.805Z,285
2018-02-24T12:02:48.270Z,280
2018-02-24T12:03:58.265Z,270
2018-02-24T12:05:07.995Z,270
2018-02-24T12:06:17.997Z,260
2018-02-24T12:07:28.020Z,260
2018-02-24T12:08:38.025Z,260
2018-02-24T12:09:47.771Z,260
2018-02-24T12:10:57.774Z,265
2018-02-24T12:12:07.504Z,275
2018-02-24T12:13:17.505Z,275
2018-02-24T12:14:27.240Z,280
2018-02-24T12:15:37.241Z,275
2018-02-24T12:16:47.237Z,275
2018-02-24T12:17:57.239Z,275
2018-02-24T12:19:06.798Z,280
2018-02-24T12:20:16.798Z,280
2018-02-24T12:21:26.526Z,285
2018-02-24T12:22:36.517Z,290
2018-02-24T12:23:46.243Z,290
2018-02-24T12:24:56.240Z,285
2018-02-24T12:26:05.702Z,280
2018-02-24T12:27:15.174Z,280
2018-02-24T12:28:24.902Z,280
2018-02-24T12:29:34.376Z,280
2018-02-24T12:30:44.107Z,285
2018-02-24T12:31:54.168Z,290
2018-02-24T12:33:03.901Z,300
2018-02-24T12:34:13.897Z,300
2018-02-24T12:35:23.896Z,290
2018-02-24T12:36:33.895Z,290
2018-02-24T12:37:43.892Z,295
2018-02-24T12:38:53.894Z,290
2018-02-24T12:40:03.628Z,285
2018-02-24T12:41:13.100Z,285
2018-02-24T12:42:23.096Z,285
2018-02-24T12:43:32.823Z,285
2018-02-24T12:44:42.822Z,285
2018-02-24T12:45:52.552Z,290
2018-02-24T12:47:02.549Z,285
2018-02-24T12:48:12.548Z,280
2018-02-24T12:49:22.066Z,275
2018-02-24T12:50:31.799Z,275
2018-02-24T12:51:41.532Z,265
2018-02-24T12:52:51.536Z,260
2018-02-24T12:54:01.531Z,260
2018-02-24T12:55:10.989Z,255
2018-02-24T12:56:20.991Z,255
2018-02-24T12:57:30.717Z,250
2018-02-24T12:58:40.451Z,245
2018-02-24T12:59:50.445Z,250
2018-02-24T13:01:00.180Z,250
2018-02-24T13:02:10.186Z,255
2018-02-24T13:03:20.188Z,255
2018-02-24T13:04:29.653Z,255
2018-02-24T13:05:39.382Z,255
2018-02-24T13:06:49.375Z,255
2018-02-24T13:07:58.577Z,250
2018-02-24T13:09:08.339Z,245
2018-02-24T13:10:18.326Z,235
2018-02-24T13:11:27.820Z,225
2018-02-24T13:12:37.826Z,220
2018-02-24T13:13:47.819Z,210
2018-02-24T13:14:57.816Z,205
2018-02-24T13:16:07.863Z,205
2018-02-24T13:17:17.587Z,205
2018-02-24T13:18:27.316Z,205
2018-02-24T13:19:37.042Z,210
2018-02-24T13:20:47.036Z,210
2018-02-24T13:21:56.763Z,215
2018-02-24T13:23:06.495Z,215
2018-02-24T13:24:16.488Z,215
2018-02-24T13:25:26.694Z,210
2018-02-24T13:26:36.700Z,210
2018-02-24T13:27:46.708Z,205
2018-02-24T13:28:56.701Z,210
2018-02-24T13:30:06.701Z,200
2018-02-24T13:31:16.440Z,200
2018-02-24T13:32:25.681Z,200
2018-02-24T13:33:35.412Z,195
2018-02-24T13:34:45.136Z,200
2018-02-24T13:35:55.131Z,195
2018-02-24T13:37:05.130Z,195
2018-02-24T13:38:15.122Z,195
2018-02-24T13:39:24.583Z,190
2018-02-24T13:40:34.314Z,190
2018-02-24T13:41:44.308Z,185
2018-02-24T13:42:54.301Z,185
2018-02-24T13:44:04.302Z,180
2018-02-24T13:45:14.029Z,175
2018-02-24T13:46:24.033Z,170
2018-02-24T13:47:34.027Z,165
2018-02-24T13:48:44.016Z,165
2018-02-24T13:49:53.743Z,160
2018-02-24T13:51:03.473Z,160
2018-02-24T13:52:13.215Z,155
2018-02-24T13:53:23.207Z,155
2018-02-24T13:54:32.932Z,150
2018-02-24T13:55:42.656Z,145
2018-02-24T13:56:52.653Z,145
2018-02-24T13:58:02.381Z,145
2018-02-24T13:59:12.105Z,145
2018-02-24T14:00:21.829Z,145
2018-02-24T14:01:31.829Z,145
2018-02-24T14:02:41.819Z,140
2018-02-24T14:03:51.863Z,145
2018-02-24T14:05:01.590Z,145
2018-02-24T14:06:11.582Z,145
2018-02-24T14:07:21.050Z,150
2018-02-24T14:08:31.044Z,140
2018-02-24T14:09:40.869Z,145
2018-02-24T14:10:50.869Z,145
2018-02-24T14:12:00.596Z,145
2018-02-24T14:13:10.434Z,145
2018-02-24T14:14:20.425Z,145
2018-02-24T14:15:30.717Z,140
2018-02-24T14:16:40.442Z,140
2018-02-24T14:17:50.436Z,140
2018-02-24T14:18:59.896Z,140
2018-02-24T14:20:09.631Z,140
2018-02-24T14:21:19.634Z,140
2018-02-24T14:22:29.696Z,140
2018-02-24T14:23:39.718Z,140
2018-02-24T14:24:49.708Z,140
2018-02-24T14:25:59.726Z,140
2018-02-24T14:27:09.723Z,140
2018-02-24T14:28:19.462Z,140
2018-02-24T14:29:29.242Z,135
2018-02-24T14:30:39.252Z,135
2018-02-24T14:31:49.252Z,135
2018-02-24T14:32:59.250Z,135
2018-02-24T14:34:08.708Z,135
2018-02-24T14:35:18.710Z,135
2018-02-24T14:36:28.704Z,135
2018-02-24T14:37:38.701Z,135
2018-02-24T14:38:48.431Z,135
2018-02-24T14:39:58.292Z,135
2018-02-24T14:41:08.021Z,135
2018-02-24T14:42:17.762Z,135
2018-02-24T14:43:27.766Z,135
2018-02-24T14:44:37.497Z,130
2018-02-24T14:45:47.492Z,130
2018-02-24T14:46:57.223Z,125
2018-02-24T14:48:07.223Z,120
2018-02-24T14:49:17.232Z,120
2018-02-24T14:50:27.323Z,110
2018-02-24T14:51:37.314Z,110
2018-02-24T14:52:46.511Z,105
2018-02-24T14:53:56.502Z,105
2018-02-24T14:55:06.498Z,100
2018-02-24T14:56:15.966Z,100
2018-02-24T14:57:25.987Z,100
2018-02-24T14:58:35.718Z,95
2018-02-24T14:59:45.724Z,95
2018-02-24T15:00:55.453Z,100
2018-02-24T15:02:05.183Z,95
2018-02-24T15:03:15.204Z,95
2018-02-24T15:04:24.937Z,95
2018-02-24T15:05:35.157Z,90
2018-02-24T15:06:45.158Z,90
2018-02-24T15:07:55.164Z,90
2018-02-24T15:09:04.909Z,90
2018-02-24T15:10:14.907Z,85
2018-02-24T15:11:24.638Z,85
2018-02-24T15:12:34.358Z,80
2018-02-24T15:13:44.087Z,75
2018-02-24T15:14:53.822Z,70
2018-02-24T15:16:03.829Z,70
2018-02-24T15:17:13.363Z,65
2018-02-24T15:18:23.092Z,60
2018-02-24T15:19:32.814Z,55
2018-02-24T15:20:42.818Z,55
2018-02-24T15:21:52.821Z,50
2018-02-24T15:23:02.826Z,50
2018-02-24T15:24:12.832Z,50
2018-02-24T15:25:22.923Z,50
2018-02-24T15:26:32.923Z,50
2018-02-24T15:27:42.924Z,50
2018-02-24T15:28:52.915Z,50
2018-02-24T15:30:02.914Z,50
2018-02-24T15:31:12.641Z,50
2018-02-24T15:32:22.641Z,50
2018-02-24T15:33:31.845Z,45
2018-02-24T15:34:41.623Z,45
2018-02-24T15:35:51.355Z,45
2018-02-24T15:37:01.369Z,45
2018-02-24T15:38:11.362Z,50
2018-02-24T15:39:21.397Z,50
2018-02-24T15:40:31.393Z,45
2018-02-24T15:41:41.391Z,45
2018-02-24T15:42:51.392Z,45
2018-02-24T15:44:01.127Z,45
2018-02-24T15:45:11.132Z,45
2018-02-24T15:46:21.130Z,50
2018-02-24T15:47:31.132Z,50
2018-02-24T15:48:40.867Z,45
2018-02-24T15:49:50.858Z,45
2018-02-24T15:51:00.856Z,45
2018-02-24T15:52:10.321Z,40
2018-02-24T15:53:20.317Z,40
2018-02-24T15:54:30.044Z,35
2018-02-24T15:55:39.774Z,35
2018-02-24T15:56:49.501Z,30
2018-02-24T15:57:59.494Z,30
2018-02-24T15:59:09.486Z,30
2018-02-24T16:00:19.217Z,30
2018-02-24T16:01:29.212Z,30
2018-02-24T16:02:38.948Z,25
2018-02-24T16:03:48.679Z,25
2018-02-24T16:04:58.459Z,25
2018-02-24T16:06:08.449Z,25
2018-02-24T16:07:18.507Z,25
2018-02-24T16:08:28.240Z,20
2018-02-24T16:09:38.242Z,20
2018-02-24T16:10:47.972Z,20
2018-02-24T16:11:57.965Z,20
2018-02-24T16:13:07.697Z,20
2018-02-24T16:14:18.085Z,15
2018-02-24T16:15:28.095Z,15
2018-02-24T16:16:38.116Z,15
2018-02-24T16:17:48.110Z,15
2018-02-24T16:18:58.362Z,10
2018-02-24T16:20:08.925Z,10
2018-02-24T16:21:18.922Z,10
2018-02-24T16:22:28.641Z,10
2018-02-24T16:23:38.635Z,10
2018-02-24T16:24:48.629Z,10
2018-02-24T16:25:58.625Z,10
2018-02-24T16:27:08.619Z,5
2018-02-24T16:28:18.347Z,5
2018-02-24T16:29:28.348Z,5
2018-02-24T16:30:38.080Z,5
2018-02-24T16:31:48.081Z,5
2018-02-24T16:32:58.346Z,5
2018-02-24T16:34:08.359Z,5
2018-02-24T16:35:17.824Z,5
2018-02-24T16:36:27.544Z,0
2018-02-24T16:37:37.273Z,0
2018-02-24T16:38:47.008Z,0